FKYS/NSI METAR and TAF weather

Enter ICAO airport designator
Station Type Date Time Source
FKYS METAR 2021/05/11 16:00 UTC NOAA

FKYS 111600Z 21005KT 190V250 8000 TS BKN020 FEW023CB 30/20 Q1014 NOSIG


Station Type Date Time Source
FKYS Decoded METAR 2021/05/11 16:00 UTC NOAA

Yaounde, Cameroon (FKYS) 03-50N 011-31E 760M
May 11, 2021 - 12:00 PM EDT / 2021.05.11 1600 UTC
Wind: from the SSW (210 degrees) at 6 MPH (5 KT) (direction variable):0
Visibility: 4 mile(s):0
Sky conditions: mostly cloudy
Weather: thunder; Cumulonimbus clouds observed
Temperature: 86 F (30 C)
Dew Point: 68 F (20 C)
Relative Humidity: 55%
Pressure (altimeter): 29.94 in. Hg (1014 hPa)
ob: FKYS 111600Z 21005KT 190V250 8000 TS BKN020 FEW023CB 30/20 Q1014 NOSIG
cycle: 16

Station Type Date Time Source
FKYS TAF 2021/05/11 16:57 UTC NOAA

TAF TAF COR FKYS 111550Z 1116/1212 22005KT 8000 TS BKN020 FEW023CB
TEMPO 1116/1119 2000 TSRA BKN006 SCT016CB
BECMG 1200/1202 BKN006
BECMG 1208/1210 FEW015

Example: see airport list